Kezdőlap
METAR-TAF:

METAR-TAF

Repülőterek :

Taylor County Airport

Medford, Wisconsin, Amerikai Egyesült Államok

földrajzi szélesség: 45-06-04N, földrajzi hosszúság: 090-18-12W, magasság: 448 m

Jelenlegi meteorológiai megfigyelések

A jelentés 14 perccel ezelõtt készült, 17:15 UTC
Dél-délkeleti szél 6 kt
Hőmérséklet 22°C
Páratartalom 73%
Légköri nyomás 1020 hPa
Látótávolság: 16.1 km
Szórványos felhőzet 11000 lábon

METAR: KMDZ 131715Z AUTO 15006KT 10SM SCT110 22/17 A3013 RMK AO2 T02230165

Idő: 12:29 (17:29 UTC)


TAF: hiányzik

Meteorológiai megfigyelések és előrejelzések több, mint 4000 repülőtéren (METAR és TAF jelentéseket).

A térképen piros és sárga pontok jelzik az elérhető meteorológiai állomásokat.

Mozgassa az egeret a pont fölött, hogy megjelenjen az állomás neve.

Azután kattintson az időjárási megfigyelések és előrejelzések megtekintéséhez.

A térkép megváltoztatása: kattintson a fekete keresztel jelölt zöld gombra ráközelítéshez, a vonallal jelölt zöld gombra távolításhoz, vagy a zöld nyilakra a szomszédos térképek eléréséhez.


METAR-TAF: